METAR Data
IDs: Format: Raw Decoded Include TAF

Data at: 2300 UTC 26 Feb 2020

KVIS 262256Z AUTO 29004KT 10SM CLR 26/03 A3027 RMK AO2 SLP256 T02560033
KVIS 262156Z AUTO 00000KT 10SM CLR 24/06 A3028 RMK AO2 SLP261 T02390056
KVIS 262056Z AUTO 20005KT 10SM CLR 24/07 A3031 RMK AO2 SLP271 T02390067 58019
KVIS 261956Z AUTO 00000KT 9SM CLR 21/07 A3034 RMK AO2 SLP280 T02110072
KVIS 261856Z AUTO 22006KT 10SM CLR 21/09 A3036 RMK AO2 SLP288 T02060089
KVIS 261756Z AUTO 16003KT 10SM CLR 17/08 A3037 RMK AO2 SLP291 T01720083 10172 20056 50006
KVIS 261656Z AUTO 12005KT 10SM CLR 14/08 A3037 RMK AO2 SLP293 T01390078
KVIS 261556Z AUTO 12004KT 10SM CLR 10/07 A3037 RMK AO2 SLP292 T01000072
KVIS 261456Z AUTO 11005KT 10SM CLR 07/05 A3035 RMK AO2 SLP287 T00670050 53012
KVIS 261356Z AUTO 15004KT 10SM CLR 07/06 A3033 RMK AO2 SLP279 T00670056
KVIS 261256Z AUTO 00000KT 10SM CLR 06/04 A3032 RMK AO2 SLP277 T00610039
KVIS 261156Z AUTO 00000KT 10SM CLR 07/05 A3031 RMK AO2 SLP273 T00720050 10122 20067 53001
KVIS 261056Z AUTO 08003KT 10SM CLR 08/06 A3031 RMK AO2 SLP270 T00830056
KVIS 260956Z AUTO 10004KT 10SM CLR 08/06 A3031 RMK AO2 SLP273 T00830056
KVIS 260856Z AUTO 14004KT 10SM CLR 09/07 A3031 RMK AO2 SLP272 T00940067 50000
KVIS 260756Z AUTO 10004KT 10SM CLR 10/06 A3031 RMK AO2 SLP272 T01000061 402280050
KVIS 260656Z AUTO 00000KT 10SM CLR 11/06 A3032 RMK AO2 SLP274 T01060061
KVIS 260556Z AUTO 00000KT 10SM CLR 12/07 A3031 RMK AO2 SLP272 T01220072 10222 20117 53017
KVIS 260456Z AUTO 00000KT 10SM CLR 12/07 A3029 RMK AO2 SLP266 T01220072
KVIS 260356Z AUTO 00000KT 10SM CLR 14/08 A3027 RMK AO2 SLP260 T01390078
KVIS 260256Z AUTO 00000KT 10SM CLR 16/08 A3026 RMK AO2 SLP256 T01610078 53008
KVIS 260156Z AUTO 00000KT 10SM CLR 20/06 A3024 RMK AO2 SLP249 T02000061
KVIS 260056Z AUTO VRB03KT 10SM CLR 22/06 A3024 RMK AO2 SLP247 T02170061
KVIS 252356Z AUTO 26006KT 10SM CLR 22/08 A3024 RMK AO2 SLP246 T02220078 10228 20150 56012